Terminal Aerodrome Forecast
Issued by NWS

Home | Current Version | Previous Version | Text Only | Print | Product List | Glossary Off
Versions: 1 2 3 4 5 6 7 8 9 10 11 12 13 14 15 16

000
FTUS41 KCLE 181700
TAFFDY
TAF
KFDY 181740Z 1818/1918 33010G20KT P6SM VCSH BKN028 OVC035
     FM182200 30010KT P6SM BKN025
     FM190400 32005KT P6SM SCT025
     FM191500 26007KT P6SM SCT030=

USA.gov is the U.S. government's official web portal to all federal, state and local government web resources and services.